sensor_id;sensor_type;location;lat;lon;timestamp;P1;durP1;ratioP1;P2;durP2;ratioP2
25191;SDS011;13143;50.924;5.320;2023-07-31T00:01:51;18.95;;;6.90;;
25191;SDS011;13143;50.924;5.320;2023-07-31T00:04:17;17.23;;;5.57;;
25191;SDS011;13143;50.924;5.320;2023-07-31T00:06:43;19.77;;;5.30;;
25191;SDS011;13143;50.924;5.320;2023-07-31T00:09:09;14.95;;;5.63;;
25191;SDS011;13143;50.924;5.320;2023-07-31T00:11:36;15.10;;;5.28;;
25191;SDS011;13143;50.924;5.320;2023-07-31T00:14:02;14.32;;;6.13;;
25191;SDS011;13143;50.924;5.320;2023-07-31T00:16:28;18.30;;;5.90;;
25191;SDS011;13143;50.924;5.320;2023-07-31T00:18:54;21.73;;;6.07;;
25191;SDS011;13143;50.924;5.320;2023-07-31T00:21:20;16.50;;;6.18;;
25191;SDS011;13143;50.924;5.320;2023-07-31T00:23:47;20.55;;;5.85;;
25191;SDS011;13143;50.924;5.320;2023-07-31T00:26:13;18.95;;;6.15;;
25191;SDS011;13143;50.924;5.320;2023-07-31T00:28:39;18.40;;;5.38;;
25191;SDS011;13143;50.924;5.320;2023-07-31T00:31:05;15.60;;;5.38;;
25191;SDS011;13143;50.924;5.320;2023-07-31T00:33:31;19.10;;;5.03;;
25191;SDS011;13143;50.924;5.320;2023-07-31T00:35:57;15.63;;;5.45;;
25191;SDS011;13143;50.924;5.320;2023-07-31T00:38:23;24.02;;;6.00;;
25191;SDS011;13143;50.924;5.320;2023-07-31T00:40:50;16.55;;;5.90;;
25191;SDS011;13143;50.924;5.320;2023-07-31T00:43:16;14.20;;;5.43;;
25191;SDS011;13143;50.924;5.320;2023-07-31T00:45:42;15.32;;;5.45;;
25191;SDS011;13143;50.924;5.320;2023-07-31T00:48:08;13.80;;;5.53;;
25191;SDS011;13143;50.924;5.320;2023-07-31T00:50:34;15.90;;;5.70;;
25191;SDS011;13143;50.924;5.320;2023-07-31T00:53:01;21.65;;;6.05;;
25191;SDS011;13143;50.924;5.320;2023-07-31T00:55:28;20.15;;;5.60;;
25191;SDS011;13143;50.924;5.320;2023-07-31T00:57:54;16.75;;;5.63;;
25191;SDS011;13143;50.924;5.320;2023-07-31T01:00:21;14.75;;;5.50;;
25191;SDS011;13143;50.924;5.320;2023-07-31T01:02:48;20.35;;;6.13;;
25191;SDS011;13143;50.924;5.320;2023-07-31T01:05:16;20.42;;;6.57;;
25191;SDS011;13143;50.924;5.320;2023-07-31T01:07:56;20.05;;;6.00;;
25191;SDS011;13143;50.924;5.320;2023-07-31T01:10:41;12.18;;;5.40;;
25191;SDS011;13143;50.924;5.320;2023-07-31T01:13:16;12.82;;;5.63;;
25191;SDS011;13143;50.924;5.320;2023-07-31T01:15:44;17.50;;;6.10;;
25191;SDS011;13143;50.924;5.320;2023-07-31T01:18:10;14.60;;;5.35;;
25191;SDS011;13143;50.924;5.320;2023-07-31T01:20:36;15.38;;;5.88;;
25191;SDS011;13143;50.924;5.320;2023-07-31T01:26:24;16.15;;;6.10;;
25191;SDS011;13143;50.924;5.320;2023-07-31T01:32:01;18.17;;;5.80;;
25191;SDS011;13143;50.924;5.320;2023-07-31T01:34:29;14.60;;;5.88;;
25191;SDS011;13143;50.924;5.320;2023-07-31T01:36:56;17.92;;;5.53;;
25191;SDS011;13143;50.924;5.320;2023-07-31T01:39:23;18.38;;;6.20;;
25191;SDS011;13143;50.924;5.320;2023-07-31T01:41:50;16.77;;;5.93;;
25191;SDS011;13143;50.924;5.320;2023-07-31T01:44:16;13.70;;;5.82;;
25191;SDS011;13143;50.924;5.320;2023-07-31T01:46:42;23.10;;;6.22;;
25191;SDS011;13143;50.924;5.320;2023-07-31T01:49:09;17.92;;;6.70;;
25191;SDS011;13143;50.924;5.320;2023-07-31T01:51:35;18.20;;;5.68;;
25191;SDS011;13143;50.924;5.320;2023-07-31T01:54:01;20.08;;;6.85;;
25191;SDS011;13143;50.924;5.320;2023-07-31T01:56:28;19.15;;;6.28;;
25191;SDS011;13143;50.924;5.320;2023-07-31T01:58:54;24.85;;;6.43;;
25191;SDS011;13143;50.924;5.320;2023-07-31T02:01:20;15.45;;;6.03;;
25191;SDS011;13143;50.924;5.320;2023-07-31T02:03:46;14.00;;;6.05;;
25191;SDS011;13143;50.924;5.320;2023-07-31T02:06:12;21.00;;;6.15;;
25191;SDS011;13143;50.924;5.320;2023-07-31T02:08:38;18.98;;;6.30;;
25191;SDS011;13143;50.924;5.320;2023-07-31T02:11:05;21.92;;;7.13;;
25191;SDS011;13143;50.924;5.320;2023-07-31T02:13:32;19.27;;;6.60;;
25191;SDS011;13143;50.924;5.320;2023-07-31T02:15:58;18.83;;;6.93;;
25191;SDS011;13143;50.924;5.320;2023-07-31T02:18:24;16.40;;;6.38;;
25191;SDS011;13143;50.924;5.320;2023-07-31T02:20:50;16.42;;;6.03;;
25191;SDS011;13143;50.924;5.320;2023-07-31T02:23:20;18.13;;;6.78;;
25191;SDS011;13143;50.924;5.320;2023-07-31T02:25:46;25.25;;;6.65;;
25191;SDS011;13143;50.924;5.320;2023-07-31T02:28:13;18.00;;;5.40;;
25191;SDS011;13143;50.924;5.320;2023-07-31T02:30:39;19.42;;;5.97;;
25191;SDS011;13143;50.924;5.320;2023-07-31T02:33:05;17.27;;;6.43;;
25191;SDS011;13143;50.924;5.320;2023-07-31T02:35:31;18.00;;;6.20;;
25191;SDS011;13143;50.924;5.320;2023-07-31T02:37:57;15.35;;;6.07;;
25191;SDS011;13143;50.924;5.320;2023-07-31T02:40:23;19.77;;;6.57;;
25191;SDS011;13143;50.924;5.320;2023-07-31T02:42:50;17.80;;;6.50;;
25191;SDS011;13143;50.924;5.320;2023-07-31T02:45:16;20.15;;;6.35;;
25191;SDS011;13143;50.924;5.320;2023-07-31T02:47:42;17.60;;;6.13;;
25191;SDS011;13143;50.924;5.320;2023-07-31T02:50:08;19.27;;;5.85;;
25191;SDS011;13143;50.924;5.320;2023-07-31T02:52:34;12.75;;;5.80;;
25191;SDS011;13143;50.924;5.320;2023-07-31T02:55:00;18.05;;;7.05;;
25191;SDS011;13143;50.924;5.320;2023-07-31T02:57:27;21.55;;;6.38;;
25191;SDS011;13143;50.924;5.320;2023-07-31T02:59:53;18.50;;;6.70;;
25191;SDS011;13143;50.924;5.320;2023-07-31T03:02:19;15.00;;;7.40;;
25191;SDS011;13143;50.924;5.320;2023-07-31T03:04:45;16.95;;;6.18;;
25191;SDS011;13143;50.924;5.320;2023-07-31T03:07:11;17.00;;;6.55;;
25191;SDS011;13143;50.924;5.320;2023-07-31T03:09:37;15.40;;;6.88;;
25191;SDS011;13143;50.924;5.320;2023-07-31T03:12:03;14.52;;;7.05;;
25191;SDS011;13143;50.924;5.320;2023-07-31T03:14:30;22.98;;;6.95;;
25191;SDS011;13143;50.924;5.320;2023-07-31T03:16:56;15.35;;;6.10;;
25191;SDS011;13143;50.924;5.320;2023-07-31T03:19:22;14.10;;;6.55;;
25191;SDS011;13143;50.924;5.320;2023-07-31T03:21:48;15.68;;;6.95;;
25191;SDS011;13143;50.924;5.320;2023-07-31T03:24:14;18.88;;;6.05;;
25191;SDS011;13143;50.924;5.320;2023-07-31T03:26:41;12.45;;;6.28;;
25191;SDS011;13143;50.924;5.320;2023-07-31T03:29:07;18.40;;;6.93;;
25191;SDS011;13143;50.924;5.320;2023-07-31T03:31:34;17.85;;;7.47;;
25191;SDS011;13143;50.924;5.320;2023-07-31T03:34:00;11.90;;;6.07;;
25191;SDS011;13143;50.924;5.320;2023-07-31T03:36:26;16.35;;;6.38;;
25191;SDS011;13143;50.924;5.320;2023-07-31T03:38:52;13.30;;;6.28;;
25191;SDS011;13143;50.924;5.320;2023-07-31T03:41:18;16.50;;;6.28;;
25191;SDS011;13143;50.924;5.320;2023-07-31T03:43:46;12.32;;;6.22;;
25191;SDS011;13143;50.924;5.320;2023-07-31T03:46:15;14.63;;;6.22;;
25191;SDS011;13143;50.924;5.320;2023-07-31T03:48:41;16.23;;;6.18;;
25191;SDS011;13143;50.924;5.320;2023-07-31T03:51:07;13.55;;;5.38;;
25191;SDS011;13143;50.924;5.320;2023-07-31T03:53:33;12.23;;;5.93;;
25191;SDS011;13143;50.924;5.320;2023-07-31T03:55:59;17.60;;;6.43;;
25191;SDS011;13143;50.924;5.320;2023-07-31T03:58:25;11.68;;;5.38;;
25191;SDS011;13143;50.924;5.320;2023-07-31T04:00:51;13.85;;;5.35;;
25191;SDS011;13143;50.924;5.320;2023-07-31T04:03:17;14.82;;;5.45;;
25191;SDS011;13143;50.924;5.320;2023-07-31T04:05:44;14.38;;;5.20;;
25191;SDS011;13143;50.924;5.320;2023-07-31T04:08:10;13.80;;;6.07;;
25191;SDS011;13143;50.924;5.320;2023-07-31T04:10:36;10.50;;;5.43;;
25191;SDS011;13143;50.924;5.320;2023-07-31T04:13:02;9.60;;;5.22;;
25191;SDS011;13143;50.924;5.320;2023-07-31T04:15:28;12.10;;;5.18;;
25191;SDS011;13143;50.924;5.320;2023-07-31T04:17:54;10.77;;;5.50;;
25191;SDS011;13143;50.924;5.320;2023-07-31T04:20:20;9.38;;;4.65;;
25191;SDS011;13143;50.924;5.320;2023-07-31T04:22:47;9.75;;;5.53;;
25191;SDS011;13143;50.924;5.320;2023-07-31T04:25:14;10.27;;;4.97;;
25191;SDS011;13143;50.924;5.320;2023-07-31T04:27:40;10.90;;;5.47;;
25191;SDS011;13143;50.924;5.320;2023-07-31T04:30:06;10.52;;;4.88;;
25191;SDS011;13143;50.924;5.320;2023-07-31T04:32:33;11.10;;;4.90;;
25191;SDS011;13143;50.924;5.320;2023-07-31T04:35:01;12.52;;;5.25;;
25191;SDS011;13143;50.924;5.320;2023-07-31T04:37:27;14.68;;;4.93;;
25191;SDS011;13143;50.924;5.320;2023-07-31T04:39:54;9.02;;;4.93;;
25191;SDS011;13143;50.924;5.320;2023-07-31T04:42:20;11.80;;;4.53;;
25191;SDS011;13143;50.924;5.320;2023-07-31T04:44:46;10.25;;;4.40;;
25191;SDS011;13143;50.924;5.320;2023-07-31T04:47:12;12.38;;;4.82;;
25191;SDS011;13143;50.924;5.320;2023-07-31T04:49:38;10.68;;;5.00;;
25191;SDS011;13143;50.924;5.320;2023-07-31T04:52:04;11.60;;;5.47;;
25191;SDS011;13143;50.924;5.320;2023-07-31T04:54:31;12.85;;;5.05;;
25191;SDS011;13143;50.924;5.320;2023-07-31T04:56:57;12.43;;;5.05;;
25191;SDS011;13143;50.924;5.320;2023-07-31T04:59:23;13.27;;;5.50;;
25191;SDS011;13143;50.924;5.320;2023-07-31T05:01:49;10.05;;;5.28;;
25191;SDS011;13143;50.924;5.320;2023-07-31T05:04:15;10.70;;;4.93;;
25191;SDS011;13143;50.924;5.320;2023-07-31T05:06:42;13.45;;;5.53;;
25191;SDS011;13143;50.924;5.320;2023-07-31T05:09:09;12.23;;;5.07;;
25191;SDS011;13143;50.924;5.320;2023-07-31T05:11:35;11.40;;;5.30;;
25191;SDS011;13143;50.924;5.320;2023-07-31T05:14:01;16.65;;;5.60;;
25191;SDS011;13143;50.924;5.320;2023-07-31T05:16:28;15.93;;;5.47;;
25191;SDS011;13143;50.924;5.320;2023-07-31T05:18:54;8.57;;;4.50;;
25191;SDS011;13143;50.924;5.320;2023-07-31T05:21:20;11.15;;;5.00;;
25191;SDS011;13143;50.924;5.320;2023-07-31T05:23:46;12.63;;;5.18;;
25191;SDS011;13143;50.924;5.320;2023-07-31T05:26:13;13.38;;;5.53;;
25191;SDS011;13143;50.924;5.320;2023-07-31T05:28:39;10.95;;;5.63;;
25191;SDS011;13143;50.924;5.320;2023-07-31T05:31:05;8.00;;;4.97;;
25191;SDS011;13143;50.924;5.320;2023-07-31T05:33:32;11.90;;;4.88;;
25191;SDS011;13143;50.924;5.320;2023-07-31T05:35:58;10.23;;;4.85;;
25191;SDS011;13143;50.924;5.320;2023-07-31T05:38:24;10.65;;;4.97;;
25191;SDS011;13143;50.924;5.320;2023-07-31T05:40:51;13.73;;;5.50;;
25191;SDS011;13143;50.924;5.320;2023-07-31T05:43:17;13.52;;;4.95;;
25191;SDS011;13143;50.924;5.320;2023-07-31T05:45:43;14.55;;;5.07;;
25191;SDS011;13143;50.924;5.320;2023-07-31T05:48:09;11.13;;;4.47;;
25191;SDS011;13143;50.924;5.320;2023-07-31T05:50:35;11.18;;;5.10;;
25191;SDS011;13143;50.924;5.320;2023-07-31T05:53:04;13.32;;;5.80;;
25191;SDS011;13143;50.924;5.320;2023-07-31T05:55:30;17.52;;;5.03;;
25191;SDS011;13143;50.924;5.320;2023-07-31T05:57:57;12.65;;;4.95;;
25191;SDS011;13143;50.924;5.320;2023-07-31T06:00:23;14.18;;;4.82;;
25191;SDS011;13143;50.924;5.320;2023-07-31T06:02:49;12.68;;;4.78;;
25191;SDS011;13143;50.924;5.320;2023-07-31T06:05:15;11.20;;;4.85;;
25191;SDS011;13143;50.924;5.320;2023-07-31T06:07:41;12.52;;;4.32;;
25191;SDS011;13143;50.924;5.320;2023-07-31T06:10:07;13.20;;;4.70;;
25191;SDS011;13143;50.924;5.320;2023-07-31T06:12:34;13.32;;;5.05;;
25191;SDS011;13143;50.924;5.320;2023-07-31T06:15:01;12.30;;;4.85;;
25191;SDS011;13143;50.924;5.320;2023-07-31T06:17:28;16.92;;;5.05;;
25191;SDS011;13143;50.924;5.320;2023-07-31T06:19:55;9.65;;;4.85;;
25191;SDS011;13143;50.924;5.320;2023-07-31T06:22:22;11.63;;;4.60;;
25191;SDS011;13143;50.924;5.320;2023-07-31T06:24:48;12.00;;;5.07;;
25191;SDS011;13143;50.924;5.320;2023-07-31T06:27:14;10.65;;;4.68;;
25191;SDS011;13143;50.924;5.320;2023-07-31T06:29:40;11.80;;;4.85;;
25191;SDS011;13143;50.924;5.320;2023-07-31T06:32:07;11.20;;;4.95;;
25191;SDS011;13143;50.924;5.320;2023-07-31T06:34:34;8.05;;;4.47;;
25191;SDS011;13143;50.924;5.320;2023-07-31T06:37:00;10.82;;;4.35;;
25191;SDS011;13143;50.924;5.320;2023-07-31T06:39:26;8.98;;;4.07;;
25191;SDS011;13143;50.924;5.320;2023-07-31T06:41:52;10.07;;;4.97;;
25191;SDS011;13143;50.924;5.320;2023-07-31T06:44:18;12.57;;;5.60;;
25191;SDS011;13143;50.924;5.320;2023-07-31T06:46:45;9.98;;;4.80;;
25191;SDS011;13143;50.924;5.320;2023-07-31T06:49:11;10.88;;;4.93;;
25191;SDS011;13143;50.924;5.320;2023-07-31T06:51:37;12.07;;;4.97;;
25191;SDS011;13143;50.924;5.320;2023-07-31T06:54:04;10.10;;;4.45;;
25191;SDS011;13143;50.924;5.320;2023-07-31T06:56:30;11.93;;;4.68;;
25191;SDS011;13143;50.924;5.320;2023-07-31T06:58:56;13.50;;;5.18;;
25191;SDS011;13143;50.924;5.320;2023-07-31T07:01:22;6.95;;;4.30;;
25191;SDS011;13143;50.924;5.320;2023-07-31T07:03:48;10.18;;;4.32;;
25191;SDS011;13143;50.924;5.320;2023-07-31T07:06:16;12.23;;;4.28;;
25191;SDS011;13143;50.924;5.320;2023-07-31T07:08:43;9.73;;;4.78;;
25191;SDS011;13143;50.924;5.320;2023-07-31T07:11:09;11.57;;;4.95;;
25191;SDS011;13143;50.924;5.320;2023-07-31T07:13:35;9.50;;;4.45;;
25191;SDS011;13143;50.924;5.320;2023-07-31T07:16:02;10.15;;;4.63;;
25191;SDS011;13143;50.924;5.320;2023-07-31T07:18:28;13.15;;;4.53;;
25191;SDS011;13143;50.924;5.320;2023-07-31T07:20:54;9.90;;;4.70;;
25191;SDS011;13143;50.924;5.320;2023-07-31T07:23:22;11.40;;;4.22;;
25191;SDS011;13143;50.924;5.320;2023-07-31T07:25:48;13.15;;;5.25;;
25191;SDS011;13143;50.924;5.320;2023-07-31T07:28:15;8.27;;;4.55;;
25191;SDS011;13143;50.924;5.320;2023-07-31T07:30:41;10.80;;;4.60;;
25191;SDS011;13143;50.924;5.320;2023-07-31T07:33:07;9.18;;;4.45;;
25191;SDS011;13143;50.924;5.320;2023-07-31T07:35:33;9.15;;;4.32;;
25191;SDS011;13143;50.924;5.320;2023-07-31T07:38:01;12.38;;;4.65;;
25191;SDS011;13143;50.924;5.320;2023-07-31T07:40:30;11.23;;;4.70;;
25191;SDS011;13143;50.924;5.320;2023-07-31T07:42:56;10.85;;;4.18;;
25191;SDS011;13143;50.924;5.320;2023-07-31T07:45:22;12.05;;;4.47;;
25191;SDS011;13143;50.924;5.320;2023-07-31T07:47:48;11.13;;;4.85;;
25191;SDS011;13143;50.924;5.320;2023-07-31T07:50:14;10.23;;;4.80;;
25191;SDS011;13143;50.924;5.320;2023-07-31T07:52:41;11.55;;;4.80;;
25191;SDS011;13143;50.924;5.320;2023-07-31T07:55:07;11.85;;;5.05;;
25191;SDS011;13143;50.924;5.320;2023-07-31T07:57:33;11.20;;;4.95;;
25191;SDS011;13143;50.924;5.320;2023-07-31T07:59:59;10.43;;;4.57;;
25191;SDS011;13143;50.924;5.320;2023-07-31T08:02:26;11.32;;;4.57;;
25191;SDS011;13143;50.924;5.320;2023-07-31T08:04:52;10.13;;;4.10;;
25191;SDS011;13143;50.924;5.320;2023-07-31T08:07:18;12.40;;;4.50;;
25191;SDS011;13143;50.924;5.320;2023-07-31T08:09:44;9.27;;;4.07;;
25191;SDS011;13143;50.924;5.320;2023-07-31T08:12:10;10.48;;;4.20;;
25191;SDS011;13143;50.924;5.320;2023-07-31T08:14:36;9.48;;;4.55;;
25191;SDS011;13143;50.924;5.320;2023-07-31T08:17:03;10.88;;;4.80;;
25191;SDS011;13143;50.924;5.320;2023-07-31T08:19:29;11.75;;;4.43;;
25191;SDS011;13143;50.924;5.320;2023-07-31T08:21:55;13.98;;;4.43;;
25191;SDS011;13143;50.924;5.320;2023-07-31T08:24:22;10.18;;;4.07;;
25191;SDS011;13143;50.924;5.320;2023-07-31T08:26:48;10.27;;;4.47;;
25191;SDS011;13143;50.924;5.320;2023-07-31T08:29:14;11.15;;;4.47;;
25191;SDS011;13143;50.924;5.320;2023-07-31T08:31:40;9.43;;;4.63;;
25191;SDS011;13143;50.924;5.320;2023-07-31T08:34:07;10.98;;;5.18;;
25191;SDS011;13143;50.924;5.320;2023-07-31T08:36:33;15.50;;;5.05;;
25191;SDS011;13143;50.924;5.320;2023-07-31T08:38:59;10.15;;;4.70;;
25191;SDS011;13143;50.924;5.320;2023-07-31T08:41:25;9.95;;;4.85;;
25191;SDS011;13143;50.924;5.320;2023-07-31T08:43:53;10.50;;;5.38;;
25191;SDS011;13143;50.924;5.320;2023-07-31T08:46:20;11.07;;;5.22;;
25191;SDS011;13143;50.924;5.320;2023-07-31T08:48:47;10.02;;;5.28;;
25191;SDS011;13143;50.924;5.320;2023-07-31T08:51:16;8.02;;;4.22;;
25191;SDS011;13143;50.924;5.320;2023-07-31T08:53:43;12.40;;;4.80;;
25191;SDS011;13143;50.924;5.320;2023-07-31T08:56:10;13.73;;;4.97;;
25191;SDS011;13143;50.924;5.320;2023-07-31T08:58:38;8.10;;;4.20;;
25191;SDS011;13143;50.924;5.320;2023-07-31T09:01:05;11.55;;;4.80;;
25191;SDS011;13143;50.924;5.320;2023-07-31T09:03:33;8.60;;;4.55;;
25191;SDS011;13143;50.924;5.320;2023-07-31T09:06:01;12.85;;;4.75;;
25191;SDS011;13143;50.924;5.320;2023-07-31T09:08:30;11.93;;;5.28;;
25191;SDS011;13143;50.924;5.320;2023-07-31T09:11:01;9.65;;;4.80;;
25191;SDS011;13143;50.924;5.320;2023-07-31T09:13:29;14.05;;;4.20;;
25191;SDS011;13143;50.924;5.320;2023-07-31T09:15:56;8.50;;;3.90;;
25191;SDS011;13143;50.924;5.320;2023-07-31T09:18:23;9.73;;;4.38;;
25191;SDS011;13143;50.924;5.320;2023-07-31T09:21:05;8.48;;;4.13;;
25191;SDS011;13143;50.924;5.320;2023-07-31T09:23:42;7.30;;;3.63;;
25191;SDS011;13143;50.924;5.320;2023-07-31T09:26:32;6.75;;;3.13;;
25191;SDS011;13143;50.924;5.320;2023-07-31T09:29:00;8.13;;;3.30;;
25191;SDS011;13143;50.924;5.320;2023-07-31T09:34:09;5.82;;;2.90;;
25191;SDS011;13143;50.924;5.320;2023-07-31T09:39:12;7.68;;;3.67;;
25191;SDS011;13143;50.924;5.320;2023-07-31T09:41:39;11.32;;;2.83;;
25191;SDS011;13143;50.924;5.320;2023-07-31T09:44:08;4.78;;;2.85;;
25191;SDS011;13143;50.924;5.320;2023-07-31T09:46:34;5.88;;;2.78;;
25191;SDS011;13143;50.924;5.320;2023-07-31T09:49:09;5.10;;;2.40;;
25191;SDS011;13143;50.924;5.320;2023-07-31T09:51:39;4.80;;;2.53;;
25191;SDS011;13143;50.924;5.320;2023-07-31T09:54:16;3.58;;;2.15;;
25191;SDS011;13143;50.924;5.320;2023-07-31T09:56:46;3.65;;;2.40;;
25191;SDS011;13143;50.924;5.320;2023-07-31T09:59:17;3.58;;;2.40;;
25191;SDS011;13143;50.924;5.320;2023-07-31T10:01:45;5.47;;;2.50;;
25191;SDS011;13143;50.924;5.320;2023-07-31T10:04:12;5.75;;;2.38;;
25191;SDS011;13143;50.924;5.320;2023-07-31T10:06:40;5.30;;;2.75;;
25191;SDS011;13143;50.924;5.320;2023-07-31T10:09:09;4.50;;;2.60;;
25191;SDS011;13143;50.924;5.320;2023-07-31T10:11:46;5.68;;;2.75;;
25191;SDS011;13143;50.924;5.320;2023-07-31T10:14:20;6.80;;;3.45;;
25191;SDS011;13143;50.924;5.320;2023-07-31T10:16:47;7.63;;;2.85;;
25191;SDS011;13143;50.924;5.320;2023-07-31T10:19:13;6.72;;;3.28;;
25191;SDS011;13143;50.924;5.320;2023-07-31T10:21:40;6.20;;;3.35;;
25191;SDS011;13143;50.924;5.320;2023-07-31T10:24:08;7.10;;;4.00;;
25191;SDS011;13143;50.924;5.320;2023-07-31T10:26:34;8.52;;;3.53;;
25191;SDS011;13143;50.924;5.320;2023-07-31T10:29:03;9.15;;;3.92;;
25191;SDS011;13143;50.924;5.320;2023-07-31T10:31:30;6.97;;;3.70;;
25191;SDS011;13143;50.924;5.320;2023-07-31T10:33:58;7.32;;;4.10;;
25191;SDS011;13143;50.924;5.320;2023-07-31T10:36:26;7.72;;;4.28;;
25191;SDS011;13143;50.924;5.320;2023-07-31T10:38:52;7.05;;;4.30;;
25191;SDS011;13143;50.924;5.320;2023-07-31T10:41:27;11.13;;;4.65;;
25191;SDS011;13143;50.924;5.320;2023-07-31T10:43:58;13.45;;;5.10;;
25191;SDS011;13143;50.924;5.320;2023-07-31T10:46:25;11.65;;;5.25;;
25191;SDS011;13143;50.924;5.320;2023-07-31T10:48:57;13.98;;;5.40;;
25191;SDS011;13143;50.924;5.320;2023-07-31T10:51:33;12.00;;;5.05;;
25191;SDS011;13143;50.924;5.320;2023-07-31T10:54:10;10.77;;;5.38;;
25191;SDS011;13143;50.924;5.320;2023-07-31T10:56:38;10.52;;;5.07;;
25191;SDS011;13143;50.924;5.320;2023-07-31T10:59:05;12.88;;;5.80;;
25191;SDS011;13143;50.924;5.320;2023-07-31T11:04:24;10.32;;;6.00;;
25191;SDS011;13143;50.924;5.320;2023-07-31T11:06:56;12.75;;;5.82;;
25191;SDS011;13143;50.924;5.320;2023-07-31T11:09:24;13.77;;;6.10;;
25191;SDS011;13143;50.924;5.320;2023-07-31T11:11:54;12.15;;;5.95;;
25191;SDS011;13143;50.924;5.320;2023-07-31T11:14:23;12.93;;;5.80;;
25191;SDS011;13143;50.924;5.320;2023-07-31T11:16:50;12.45;;;5.85;;
25191;SDS011;13143;50.924;5.320;2023-07-31T11:19:25;12.77;;;5.75;;
25191;SDS011;13143;50.924;5.320;2023-07-31T11:21:51;16.15;;;5.50;;
25191;SDS011;13143;50.924;5.320;2023-07-31T11:24:18;12.82;;;5.90;;
25191;SDS011;13143;50.924;5.320;2023-07-31T11:26:51;13.55;;;5.85;;
25191;SDS011;13143;50.924;5.320;2023-07-31T11:29:18;13.23;;;6.40;;
25191;SDS011;13143;50.924;5.320;2023-07-31T11:31:45;14.68;;;6.40;;
25191;SDS011;13143;50.924;5.320;2023-07-31T11:34:15;13.07;;;6.05;;
25191;SDS011;13143;50.924;5.320;2023-07-31T11:36:52;11.32;;;5.50;;
25191;SDS011;13143;50.924;5.320;2023-07-31T11:39:20;14.27;;;5.90;;
25191;SDS011;13143;50.924;5.320;2023-07-31T11:41:46;12.57;;;5.78;;
25191;SDS011;13143;50.924;5.320;2023-07-31T11:44:12;10.65;;;5.78;;
25191;SDS011;13143;50.924;5.320;2023-07-31T11:46:38;12.10;;;5.80;;
25191;SDS011;13143;50.924;5.320;2023-07-31T11:49:05;12.70;;;5.85;;
25191;SDS011;13143;50.924;5.320;2023-07-31T11:51:31;15.80;;;5.82;;
25191;SDS011;13143;50.924;5.320;2023-07-31T11:53:58;15.98;;;6.95;;
25191;SDS011;13143;50.924;5.320;2023-07-31T11:56:26;13.38;;;6.35;;
25191;SDS011;13143;50.924;5.320;2023-07-31T11:58:54;13.50;;;6.00;;
25191;SDS011;13143;50.924;5.320;2023-07-31T12:01:23;13.52;;;5.50;;
25191;SDS011;13143;50.924;5.320;2023-07-31T12:03:50;8.80;;;5.55;;
25191;SDS011;13143;50.924;5.320;2023-07-31T12:06:17;15.10;;;5.35;;
25191;SDS011;13143;50.924;5.320;2023-07-31T12:08:46;16.15;;;6.28;;
25191;SDS011;13143;50.924;5.320;2023-07-31T12:11:13;11.60;;;5.57;;
25191;SDS011;13143;50.924;5.320;2023-07-31T12:13:40;12.52;;;6.03;;
25191;SDS011;13143;50.924;5.320;2023-07-31T12:16:06;12.73;;;5.70;;
25191;SDS011;13143;50.924;5.320;2023-07-31T12:18:33;15.10;;;6.20;;
25191;SDS011;13143;50.924;5.320;2023-07-31T12:21:02;11.90;;;6.05;;
25191;SDS011;13143;50.924;5.320;2023-07-31T12:23:31;11.85;;;5.72;;
25191;SDS011;13143;50.924;5.320;2023-07-31T12:26:05;12.95;;;5.60;;
25191;SDS011;13143;50.924;5.320;2023-07-31T12:28:35;12.98;;;5.80;;
25191;SDS011;13143;50.924;5.320;2023-07-31T12:31:12;13.45;;;5.70;;
25191;SDS011;13143;50.924;5.320;2023-07-31T12:33:43;11.52;;;5.80;;
25191;SDS011;13143;50.924;5.320;2023-07-31T12:36:11;17.92;;;6.18;;
25191;SDS011;13143;50.924;5.320;2023-07-31T12:38:39;10.43;;;5.15;;
25191;SDS011;13143;50.924;5.320;2023-07-31T12:41:05;11.32;;;5.10;;
25191;SDS011;13143;50.924;5.320;2023-07-31T12:43:34;10.82;;;5.47;;
25191;SDS011;13143;50.924;5.320;2023-07-31T12:46:01;12.18;;;5.22;;
25191;SDS011;13143;50.924;5.320;2023-07-31T12:48:28;13.57;;;5.75;;
25191;SDS011;13143;50.924;5.320;2023-07-31T12:50:55;9.57;;;4.90;;
25191;SDS011;13143;50.924;5.320;2023-07-31T12:53:21;11.90;;;5.30;;
25191;SDS011;13143;50.924;5.320;2023-07-31T12:55:47;16.00;;;5.95;;
25191;SDS011;13143;50.924;5.320;2023-07-31T12:58:13;11.20;;;5.95;;
25191;SDS011;13143;50.924;5.320;2023-07-31T13:00:39;12.70;;;5.55;;
25191;SDS011;13143;50.924;5.320;2023-07-31T13:03:05;11.73;;;5.07;;
25191;SDS011;13143;50.924;5.320;2023-07-31T13:05:31;10.98;;;5.45;;
25191;SDS011;13143;50.924;5.320;2023-07-31T13:07:58;11.52;;;5.82;;
25191;SDS011;13143;50.924;5.320;2023-07-31T13:10:24;13.15;;;6.05;;
25191;SDS011;13143;50.924;5.320;2023-07-31T13:12:52;10.63;;;5.70;;
25191;SDS011;13143;50.924;5.320;2023-07-31T13:15:18;12.60;;;6.00;;
25191;SDS011;13143;50.924;5.320;2023-07-31T13:17:45;13.32;;;6.13;;
25191;SDS011;13143;50.924;5.320;2023-07-31T13:20:11;15.02;;;6.60;;
25191;SDS011;13143;50.924;5.320;2023-07-31T13:22:38;12.48;;;6.10;;
25191;SDS011;13143;50.924;5.320;2023-07-31T13:25:04;12.85;;;6.10;;
25191;SDS011;13143;50.924;5.320;2023-07-31T13:27:31;15.32;;;6.38;;
25191;SDS011;13143;50.924;5.320;2023-07-31T13:29:58;15.25;;;6.68;;
25191;SDS011;13143;50.924;5.320;2023-07-31T13:32:24;12.88;;;6.20;;
25191;SDS011;13143;50.924;5.320;2023-07-31T13:34:51;12.45;;;6.07;;
25191;SDS011;13143;50.924;5.320;2023-07-31T13:37:17;12.02;;;6.13;;
25191;SDS011;13143;50.924;5.320;2023-07-31T13:39:43;14.57;;;6.80;;
25191;SDS011;13143;50.924;5.320;2023-07-31T13:42:09;16.10;;;5.40;;
25191;SDS011;13143;50.924;5.320;2023-07-31T13:44:38;12.70;;;6.38;;
25191;SDS011;13143;50.924;5.320;2023-07-31T13:47:05;12.18;;;5.60;;
25191;SDS011;13143;50.924;5.320;2023-07-31T13:49:31;10.70;;;5.53;;
25191;SDS011;13143;50.924;5.320;2023-07-31T13:51:58;15.63;;;6.30;;
25191;SDS011;13143;50.924;5.320;2023-07-31T13:54:25;15.35;;;6.13;;
25191;SDS011;13143;50.924;5.320;2023-07-31T13:56:54;11.13;;;5.93;;
25191;SDS011;13143;50.924;5.320;2023-07-31T13:59:21;12.30;;;6.38;;
25191;SDS011;13143;50.924;5.320;2023-07-31T14:01:47;12.55;;;5.53;;
25191;SDS011;13143;50.924;5.320;2023-07-31T14:04:13;12.57;;;6.05;;
25191;SDS011;13143;50.924;5.320;2023-07-31T14:06:39;14.52;;;5.70;;
25191;SDS011;13143;50.924;5.320;2023-07-31T14:09:06;14.18;;;6.10;;
25191;SDS011;13143;50.924;5.320;2023-07-31T14:11:32;13.13;;;5.88;;
25191;SDS011;13143;50.924;5.320;2023-07-31T14:13:58;9.68;;;5.22;;
25191;SDS011;13143;50.924;5.320;2023-07-31T14:16:24;17.63;;;5.43;;
25191;SDS011;13143;50.924;5.320;2023-07-31T14:18:51;17.13;;;5.90;;
25191;SDS011;13143;50.924;5.320;2023-07-31T14:21:19;16.17;;;5.55;;
25191;SDS011;13143;50.924;5.320;2023-07-31T14:23:45;13.85;;;5.35;;
25191;SDS011;13143;50.924;5.320;2023-07-31T14:26:11;12.20;;;4.63;;
25191;SDS011;13143;50.924;5.320;2023-07-31T14:28:37;11.73;;;5.20;;
25191;SDS011;13143;50.924;5.320;2023-07-31T14:31:04;12.23;;;4.95;;
25191;SDS011;13143;50.924;5.320;2023-07-31T14:33:30;13.50;;;5.13;;
25191;SDS011;13143;50.924;5.320;2023-07-31T14:35:56;11.25;;;5.65;;
25191;SDS011;13143;50.924;5.320;2023-07-31T14:38:22;14.20;;;5.20;;
25191;SDS011;13143;50.924;5.320;2023-07-31T14:40:48;8.77;;;4.22;;
25191;SDS011;13143;50.924;5.320;2023-07-31T14:43:15;10.25;;;3.55;;
25191;SDS011;13143;50.924;5.320;2023-07-31T14:45:41;6.53;;;3.60;;
25191;SDS011;13143;50.924;5.320;2023-07-31T14:48:07;6.68;;;3.40;;
25191;SDS011;13143;50.924;5.320;2023-07-31T14:50:33;9.27;;;3.30;;